createdAt,value
2017-06-16T00:00:24.905Z,969.1
2017-06-16T00:01:24.904Z,969.03
2017-06-16T00:02:24.902Z,969
2017-06-16T00:03:24.903Z,968.98
2017-06-16T00:04:24.903Z,968.92
2017-06-16T00:05:24.901Z,968.88
2017-06-16T00:06:24.903Z,968.88
2017-06-16T00:07:24.900Z,968.93
2017-06-16T00:08:24.897Z,968.97
2017-06-16T00:09:24.899Z,969.04
2017-06-16T00:10:24.898Z,969.1
2017-06-16T00:11:24.899Z,969.1
2017-06-16T00:12:24.897Z,969.09
2017-06-16T00:13:24.896Z,969.13
2017-06-16T00:14:24.894Z,969.13
2017-06-16T00:15:24.895Z,969.14
2017-06-16T00:16:24.894Z,969.14
2017-06-16T00:17:24.893Z,969.1
2017-06-16T00:18:24.892Z,969.09
2017-06-16T00:19:24.892Z,969.14
2017-06-16T00:20:24.890Z,969.17
2017-06-16T00:21:24.891Z,969.17
2017-06-16T00:22:24.890Z,969.22
2017-06-16T00:23:24.887Z,969.18
2017-06-16T00:24:24.887Z,969.22
2017-06-16T00:25:24.888Z,969.22
2017-06-16T00:26:24.888Z,969.2
2017-06-16T00:27:24.888Z,969.2
2017-06-16T00:28:24.887Z,969.15
2017-06-16T00:29:24.885Z,969.18
2017-06-16T00:30:24.884Z,969.15
2017-06-16T00:31:24.884Z,969.19
2017-06-16T00:32:24.885Z,969.14
2017-06-16T00:33:24.883Z,969.15
2017-06-16T00:34:24.881Z,969.14
2017-06-16T00:35:24.880Z,969.11
2017-06-16T00:36:24.880Z,969.07
2017-06-16T00:37:24.881Z,969.1
2017-06-16T00:38:24.879Z,969.17
2017-06-16T00:39:24.878Z,969.2
2017-06-16T00:40:24.876Z,969.21
2017-06-16T00:41:24.876Z,969.24
2017-06-16T00:42:24.876Z,969.26
2017-06-16T00:43:24.876Z,969.28
2017-06-16T00:44:24.876Z,969.29
2017-06-16T00:45:24.876Z,969.39
2017-06-16T00:46:24.873Z,969.43
2017-06-16T00:47:24.872Z,969.45
2017-06-16T00:48:24.873Z,969.46
2017-06-16T00:49:24.872Z,969.51
2017-06-16T00:50:24.871Z,969.49
2017-06-16T00:51:24.871Z,969.48
2017-06-16T00:52:24.869Z,969.45
2017-06-16T00:53:24.869Z,969.39
2017-06-16T00:54:24.868Z,969.42
2017-06-16T00:55:24.867Z,969.44
2017-06-16T00:56:24.866Z,969.44
2017-06-16T00:57:24.867Z,969.45
2017-06-16T00:58:24.866Z,969.36
2017-06-16T00:59:24.865Z,969.4
2017-06-16T01:00:24.864Z,969.39
2017-06-16T01:01:24.864Z,969.39
2017-06-16T01:02:24.862Z,969.4
2017-06-16T01:03:24.861Z,969.39
2017-06-16T01:04:24.862Z,969.35
2017-06-16T01:05:24.863Z,969.4
2017-06-16T01:06:24.861Z,969.33
2017-06-16T01:07:24.859Z,969.33
2017-06-16T01:08:24.859Z,969.33
2017-06-16T01:09:24.858Z,969.32
2017-06-16T01:10:24.857Z,969.35
2017-06-16T01:11:24.857Z,969.37
2017-06-16T01:12:24.855Z,969.33
2017-06-16T01:13:24.854Z,969.27
2017-06-16T01:14:24.852Z,969.3
2017-06-16T01:15:24.854Z,969.26
2017-06-16T01:16:24.853Z,969.23
2017-06-16T01:17:24.853Z,969.22
2017-06-16T01:18:24.853Z,969.22
2017-06-16T01:19:24.849Z,969.15
2017-06-16T01:20:24.849Z,969.19
2017-06-16T01:21:24.850Z,969.12
2017-06-16T01:22:24.848Z,969.1
2017-06-16T01:23:24.848Z,969.12
2017-06-16T01:24:24.848Z,969.13
2017-06-16T01:25:24.846Z,969.08
2017-06-16T01:26:24.846Z,969.12
2017-06-16T01:27:24.844Z,969.15
2017-06-16T01:28:24.845Z,969.22
2017-06-16T01:29:24.843Z,969.23
2017-06-16T01:30:24.841Z,969.28
2017-06-16T01:31:24.843Z,969.28
2017-06-16T01:32:24.840Z,969.33
2017-06-16T01:33:24.841Z,969.32
2017-06-16T01:34:24.839Z,969.38
2017-06-16T01:35:24.839Z,969.41
2017-06-16T01:36:24.837Z,969.43
2017-06-16T01:37:24.837Z,969.44
2017-06-16T01:38:24.836Z,969.47
2017-06-16T01:39:24.836Z,969.53
2017-06-16T01:40:24.834Z,969.52
2017-06-16T01:41:24.833Z,969.51
2017-06-16T01:42:24.832Z,969.52
2017-06-16T01:43:24.832Z,969.51
2017-06-16T01:44:24.830Z,969.55
2017-06-16T01:45:24.831Z,969.65
2017-06-16T01:46:24.831Z,969.69
2017-06-16T01:47:24.829Z,969.76
2017-06-16T01:48:24.828Z,969.78
2017-06-16T01:49:24.827Z,969.72
2017-06-16T01:50:24.827Z,969.71
2017-06-16T01:51:24.827Z,969.74
2017-06-16T01:52:24.824Z,969.75
2017-06-16T01:53:24.823Z,969.74
2017-06-16T01:54:24.822Z,969.75
2017-06-16T01:55:24.823Z,969.73
2017-06-16T01:56:24.821Z,969.73
2017-06-16T01:57:24.822Z,969.73
2017-06-16T01:58:24.819Z,969.75
2017-06-16T01:59:24.821Z,969.71
2017-06-16T02:00:24.818Z,969.71
2017-06-16T02:01:24.817Z,969.73
2017-06-16T02:02:24.816Z,969.73
2017-06-16T02:03:24.817Z,969.75
2017-06-16T02:04:24.816Z,969.73
2017-06-16T02:05:24.847Z,969.68
2017-06-16T02:06:24.813Z,969.67
2017-06-16T02:07:24.812Z,969.68
2017-06-16T02:08:24.812Z,969.7
2017-06-16T02:09:24.810Z,969.68
2017-06-16T02:10:24.811Z,969.64
2017-06-16T02:11:24.810Z,969.67
2017-06-16T02:12:24.809Z,969.66
2017-06-16T02:13:24.806Z,969.65
2017-06-16T02:14:24.808Z,969.67
2017-06-16T02:15:24.807Z,969.69
2017-06-16T02:16:24.805Z,969.66
2017-06-16T02:17:24.802Z,969.59
2017-06-16T02:18:24.804Z,969.6
2017-06-16T02:19:24.804Z,969.51
2017-06-16T02:20:24.800Z,969.5
2017-06-16T02:21:24.801Z,969.46
2017-06-16T02:22:24.800Z,969.49
2017-06-16T02:23:24.799Z,969.47
2017-06-16T02:24:24.798Z,969.52
2017-06-16T02:25:24.800Z,969.55
2017-06-16T02:26:24.799Z,969.54
2017-06-16T02:27:24.798Z,969.59
2017-06-16T02:28:24.795Z,969.54
2017-06-16T02:29:24.795Z,969.48
2017-06-16T02:30:24.795Z,969.54
2017-06-16T02:31:24.794Z,969.49
2017-06-16T02:32:24.793Z,969.53
2017-06-16T02:33:24.792Z,969.51
2017-06-16T02:34:24.789Z,969.54
2017-06-16T02:35:24.790Z,969.55
2017-06-16T02:36:24.788Z,969.55
2017-06-16T02:37:24.790Z,969.63
2017-06-16T02:38:24.788Z,969.63
2017-06-16T02:39:24.787Z,969.64
2017-06-16T02:40:24.785Z,969.7
2017-06-16T02:41:24.786Z,969.75
2017-06-16T02:42:24.784Z,969.79
2017-06-16T02:43:24.784Z,969.8
2017-06-16T02:44:24.784Z,969.83
2017-06-16T02:45:24.780Z,969.87
2017-06-16T02:46:24.779Z,969.86
2017-06-16T02:47:24.779Z,969.88
2017-06-16T02:48:24.780Z,969.85
2017-06-16T02:49:24.778Z,969.85
2017-06-16T02:50:24.777Z,969.84
2017-06-16T02:51:24.777Z,969.88
2017-06-16T02:52:24.776Z,969.85
2017-06-16T02:53:24.775Z,969.85
2017-06-16T02:54:24.775Z,969.85
2017-06-16T02:55:24.774Z,969.81
2017-06-16T02:56:24.772Z,969.77
2017-06-16T02:57:24.769Z,969.73
2017-06-16T02:58:24.771Z,969.76
2017-06-16T02:59:24.771Z,969.82
2017-06-16T03:00:24.769Z,969.83
2017-06-16T03:01:24.768Z,969.86
2017-06-16T03:02:24.767Z,969.89
2017-06-16T03:03:24.766Z,969.82
2017-06-16T03:04:24.764Z,969.83
2017-06-16T03:05:24.765Z,969.85
2017-06-16T03:06:24.764Z,969.86
2017-06-16T03:07:24.762Z,969.84
2017-06-16T03:08:24.762Z,969.81
2017-06-16T03:09:24.760Z,969.76
2017-06-16T03:10:24.760Z,969.76
2017-06-16T03:11:24.759Z,969.74
2017-06-16T03:12:24.760Z,969.7
2017-06-16T03:13:24.758Z,969.7
2017-06-16T03:14:24.756Z,969.74
2017-06-16T03:15:24.755Z,969.72
2017-06-16T03:16:24.755Z,969.74
2017-06-16T03:17:24.754Z,969.75
2017-06-16T03:18:24.752Z,969.8
2017-06-16T03:19:24.751Z,969.84
2017-06-16T03:20:24.751Z,969.81
2017-06-16T03:21:24.752Z,969.82
2017-06-16T03:22:24.750Z,969.79
2017-06-16T03:23:24.749Z,969.72
2017-06-16T03:24:24.748Z,969.73
2017-06-16T03:25:24.747Z,969.73
2017-06-16T03:26:24.744Z,969.77
2017-06-16T03:27:24.744Z,969.78
2017-06-16T03:28:24.744Z,969.79
2017-06-16T03:29:24.743Z,969.79
2017-06-16T03:30:24.742Z,969.79
2017-06-16T03:31:24.741Z,969.85
2017-06-16T03:32:24.740Z,969.86
2017-06-16T03:33:24.738Z,969.87
2017-06-16T03:34:24.740Z,969.88
2017-06-16T03:35:24.738Z,969.88
2017-06-16T03:36:24.738Z,969.9
2017-06-16T03:37:24.735Z,969.91
2017-06-16T03:38:24.735Z,969.89
2017-06-16T03:39:24.734Z,969.86
2017-06-16T03:40:24.733Z,969.91
2017-06-16T03:41:24.733Z,969.93
2017-06-16T03:42:24.733Z,969.97
2017-06-16T03:43:24.731Z,969.95
2017-06-16T03:44:24.728Z,969.97
2017-06-16T03:45:24.731Z,969.96
2017-06-16T03:46:24.729Z,969.92
2017-06-16T03:47:24.727Z,969.94
2017-06-16T03:48:24.726Z,969.92
2017-06-16T03:49:24.725Z,969.94
2017-06-16T03:50:24.725Z,969.95
2017-06-16T03:51:24.722Z,969.93
2017-06-16T03:52:24.722Z,969.94
2017-06-16T03:53:24.721Z,969.92
2017-06-16T03:54:24.721Z,969.95
2017-06-16T03:55:24.720Z,969.93
2017-06-16T03:56:24.719Z,969.97
2017-06-16T03:57:24.722Z,970.01
2017-06-16T03:58:24.717Z,970.02
2017-06-16T03:59:24.717Z,970.03
2017-06-16T04:00:24.716Z,970.02
2017-06-16T04:01:24.716Z,970
2017-06-16T04:02:24.714Z,969.99
2017-06-16T04:03:24.714Z,970.01
2017-06-16T04:04:24.714Z,969.96
2017-06-16T04:05:24.712Z,969.97
2017-06-16T04:06:24.712Z,969.95
2017-06-16T04:07:24.711Z,969.98
2017-06-16T04:08:24.711Z,970
2017-06-16T04:09:24.707Z,970.03
2017-06-16T04:10:24.708Z,970
2017-06-16T04:11:24.708Z,970.03
2017-06-16T04:12:24.707Z,970.03
2017-06-16T04:13:24.703Z,970.08
2017-06-16T04:14:24.704Z,970.09
2017-06-16T04:15:24.704Z,970.05
2017-06-16T04:16:24.703Z,970.09
2017-06-16T04:17:24.700Z,970.11
2017-06-16T04:18:24.699Z,970.11
2017-06-16T04:19:24.701Z,970.1
2017-06-16T04:20:24.700Z,970.14
2017-06-16T04:21:24.699Z,970.16
2017-06-16T04:22:24.698Z,970.22
2017-06-16T04:23:24.698Z,970.23
2017-06-16T04:24:24.696Z,970.21
2017-06-16T04:25:24.696Z,970.3
2017-06-16T04:26:24.697Z,970.25
2017-06-16T04:27:24.695Z,970.31
2017-06-16T04:28:24.693Z,970.31
2017-06-16T04:29:24.694Z,970.3
2017-06-16T04:30:24.692Z,970.32
2017-06-16T04:31:24.691Z,970.33
2017-06-16T04:32:24.690Z,970.31
2017-06-16T04:33:24.691Z,970.39
2017-06-16T04:34:24.689Z,970.38
2017-06-16T04:35:24.688Z,970.38
2017-06-16T04:36:24.690Z,970.39
2017-06-16T04:37:24.688Z,970.4
2017-06-16T04:38:24.687Z,970.43
2017-06-16T04:39:24.685Z,970.47
2017-06-16T04:40:24.685Z,970.44
2017-06-16T04:41:24.686Z,970.46
2017-06-16T04:42:24.682Z,970.46
2017-06-16T04:43:24.682Z,970.5
2017-06-16T04:44:24.681Z,970.5
2017-06-16T04:45:24.682Z,970.48
2017-06-16T04:46:24.681Z,970.44
2017-06-16T04:47:24.680Z,970.51
2017-06-16T04:48:24.680Z,970.51
2017-06-16T04:49:24.680Z,970.5
2017-06-16T04:50:24.679Z,970.46
2017-06-16T04:51:24.677Z,970.45
2017-06-16T04:52:24.676Z,970.45
2017-06-16T04:53:24.676Z,970.48
2017-06-16T04:54:24.674Z,970.5
2017-06-16T04:55:24.673Z,970.57
2017-06-16T04:56:24.673Z,970.54
2017-06-16T04:57:24.672Z,970.55
2017-06-16T04:58:24.672Z,970.54
2017-06-16T04:59:24.672Z,970.51
2017-06-16T05:00:24.672Z,970.5
2017-06-16T05:01:24.670Z,970.56
2017-06-16T05:02:24.668Z,970.54
2017-06-16T05:03:24.669Z,970.55
2017-06-16T05:04:24.668Z,970.55
2017-06-16T05:05:24.666Z,970.54
2017-06-16T05:06:24.667Z,970.5
2017-06-16T05:07:24.665Z,970.47
2017-06-16T05:08:24.665Z,970.48
2017-06-16T05:09:24.664Z,970.47
2017-06-16T05:10:24.663Z,970.47
2017-06-16T05:11:24.662Z,970.5
2017-06-16T05:12:24.660Z,970.53
2017-06-16T05:13:24.661Z,970.48
2017-06-16T05:14:24.661Z,970.51
2017-06-16T05:15:24.660Z,970.54
2017-06-16T05:16:24.659Z,970.57
2017-06-16T05:17:24.658Z,970.56
2017-06-16T05:18:24.660Z,970.52
2017-06-16T05:19:24.656Z,970.55
2017-06-16T05:20:24.655Z,970.54
2017-06-16T05:21:24.657Z,970.55
2017-06-16T05:22:24.656Z,970.56
2017-06-16T05:23:24.652Z,970.59
2017-06-16T05:24:24.653Z,970.6
2017-06-16T05:25:24.652Z,970.64
2017-06-16T05:26:24.650Z,970.63
2017-06-16T05:27:24.650Z,970.69
2017-06-16T05:28:24.650Z,970.67
2017-06-16T05:29:24.650Z,970.68
2017-06-16T05:30:24.647Z,970.71
2017-06-16T05:31:24.646Z,970.72
2017-06-16T05:32:24.647Z,970.74
2017-06-16T05:33:24.647Z,970.74
2017-06-16T05:34:24.646Z,970.74
2017-06-16T05:35:24.645Z,970.75
2017-06-16T05:36:24.644Z,970.72
2017-06-16T05:37:24.644Z,970.74
2017-06-16T05:38:24.645Z,970.72
2017-06-16T05:39:24.642Z,970.73
2017-06-16T05:40:24.642Z,970.71
2017-06-16T05:41:24.641Z,970.71
2017-06-16T05:42:24.640Z,970.74
2017-06-16T05:43:24.640Z,970.71
2017-06-16T05:44:24.639Z,970.71
2017-06-16T05:45:24.639Z,970.71
2017-06-16T05:46:24.638Z,970.72
2017-06-16T05:47:24.638Z,970.72
2017-06-16T05:48:24.634Z,970.73
2017-06-16T05:49:24.635Z,970.72
2017-06-16T05:50:24.636Z,970.76
2017-06-16T05:51:24.636Z,970.78
2017-06-16T05:52:24.631Z,970.77
2017-06-16T05:53:24.632Z,970.76
2017-06-16T05:54:24.631Z,970.75
2017-06-16T05:55:24.632Z,970.74
2017-06-16T05:56:24.629Z,970.77
2017-06-16T05:57:24.629Z,970.79
2017-06-16T05:58:24.629Z,970.78
2017-06-16T05:59:24.627Z,970.86
2017-06-16T06:00:24.627Z,970.85
2017-06-16T06:01:24.626Z,970.85
2017-06-16T06:02:24.625Z,970.83
2017-06-16T06:03:24.622Z,970.83
2017-06-16T06:04:24.623Z,970.78
2017-06-16T06:05:24.624Z,970.83
2017-06-16T06:06:24.623Z,970.85
2017-06-16T06:07:24.622Z,970.86
2017-06-16T06:08:24.621Z,970.94
2017-06-16T06:09:24.621Z,970.94
2017-06-16T06:10:24.618Z,970.97
2017-06-16T06:11:24.618Z,970.98
2017-06-16T06:12:24.617Z,970.97
2017-06-16T06:13:24.617Z,970.97
2017-06-16T06:14:24.615Z,970.94
2017-06-16T06:15:24.615Z,970.98
2017-06-16T06:16:24.616Z,970.97
2017-06-16T06:17:24.622Z,971.02
2017-06-16T06:18:24.612Z,971.07
2017-06-16T06:19:24.611Z,971.04
2017-06-16T06:20:24.612Z,971.05
2017-06-16T06:21:24.610Z,971.07
2017-06-16T06:22:24.611Z,971.11
2017-06-16T06:23:24.608Z,971.13
2017-06-16T06:24:24.609Z,971.13
2017-06-16T06:25:24.607Z,971.06
2017-06-16T06:26:24.607Z,971.06
2017-06-16T06:27:24.605Z,971.05
2017-06-16T06:28:24.603Z,971.11
2017-06-16T06:29:24.604Z,971.12
2017-06-16T06:30:24.607Z,971.1
2017-06-16T06:31:24.603Z,971.08
2017-06-16T06:32:24.600Z,971.12
2017-06-16T06:33:24.601Z,971.11
2017-06-16T06:34:24.599Z,971.17
2017-06-16T06:35:24.597Z,971.17
2017-06-16T06:36:24.597Z,971.13
2017-06-16T06:37:24.597Z,971.13
2017-06-16T06:38:24.597Z,971.16
2017-06-16T06:39:24.595Z,971.16
2017-06-16T06:40:24.595Z,971.16
2017-06-16T06:41:24.593Z,971.15
2017-06-16T06:42:24.594Z,971.16
2017-06-16T06:43:24.593Z,971.18
2017-06-16T06:44:24.592Z,971.2
2017-06-16T06:45:24.591Z,971.22
2017-06-16T06:46:24.589Z,971.24
2017-06-16T06:47:24.589Z,971.29
2017-06-16T06:48:24.589Z,971.26
2017-06-16T06:49:24.589Z,971.23
2017-06-16T06:50:24.588Z,971.25
2017-06-16T06:51:24.585Z,971.26
2017-06-16T06:52:24.586Z,971.25
2017-06-16T06:53:24.588Z,971.23
2017-06-16T06:54:24.585Z,971.19
2017-06-16T06:55:24.585Z,971.2
2017-06-16T06:56:24.584Z,971.26
2017-06-16T06:57:24.583Z,971.27
2017-06-16T06:58:24.582Z,971.26
2017-06-16T06:59:24.582Z,971.27
2017-06-16T07:00:24.583Z,971.31
2017-06-16T07:01:24.581Z,971.3
2017-06-16T07:02:24.611Z,971.23
2017-06-16T07:03:24.582Z,971.22
2017-06-16T07:04:24.582Z,971.21
2017-06-16T07:05:24.582Z,971.23
2017-06-16T07:06:24.581Z,971.28
2017-06-16T07:07:24.582Z,971.21
2017-06-16T07:08:24.581Z,971.23
2017-06-16T07:09:24.581Z,971.3
2017-06-16T07:10:24.582Z,971.25
2017-06-16T07:11:24.584Z,971.26
2017-06-16T07:12:24.583Z,971.21
2017-06-16T07:13:24.584Z,971.19
2017-06-16T07:14:24.583Z,971.18
2017-06-16T07:15:24.586Z,971.19
2017-06-16T07:16:24.586Z,971.21
2017-06-16T07:17:24.585Z,971.31
2017-06-16T07:18:24.588Z,971.27
2017-06-16T07:19:24.587Z,971.27
2017-06-16T07:20:24.587Z,971.26
2017-06-16T07:21:24.590Z,971.23
2017-06-16T07:22:24.590Z,971.22
2017-06-16T07:23:24.591Z,971.22
2017-06-16T07:24:24.590Z,971.22
2017-06-16T07:25:24.593Z,971.27
2017-06-16T07:26:24.594Z,971.3
2017-06-16T07:27:24.594Z,971.34
2017-06-16T07:28:24.596Z,971.35
2017-06-16T07:29:24.601Z,971.36
2017-06-16T07:30:24.597Z,971.36
2017-06-16T07:31:24.598Z,971.38
2017-06-16T07:32:24.600Z,971.37
2017-06-16T07:33:24.601Z,971.36
2017-06-16T07:34:24.599Z,971.39
2017-06-16T07:35:24.599Z,971.38
2017-06-16T07:36:24.602Z,971.38
2017-06-16T07:37:24.604Z,971.34
2017-06-16T07:38:24.605Z,971.31
2017-06-16T07:39:24.605Z,971.33
2017-06-16T07:40:24.606Z,971.35
2017-06-16T07:41:24.607Z,971.29
2017-06-16T07:42:24.608Z,971.26
2017-06-16T07:43:24.610Z,971.27
2017-06-16T07:44:24.611Z,971.27
2017-06-16T07:45:24.610Z,971.28
2017-06-16T07:46:24.611Z,971.29
2017-06-16T07:47:24.613Z,971.27
2017-06-16T07:48:24.614Z,971.34
2017-06-16T07:49:24.615Z,971.26
2017-06-16T07:50:24.616Z,971.25
2017-06-16T07:51:24.616Z,971.22
2017-06-16T07:52:24.615Z,971.19
2017-06-16T07:53:24.616Z,971.2
2017-06-16T07:54:24.618Z,971.16
2017-06-16T07:55:24.620Z,971.17
2017-06-16T07:56:24.621Z,971.16
2017-06-16T07:57:24.621Z,971.18
2017-06-16T07:58:24.623Z,971.17
2017-06-16T07:59:24.622Z,971.17
2017-06-16T08:00:24.623Z,971.23
2017-06-16T08:01:24.624Z,971.23
2017-06-16T08:02:24.624Z,971.25
2017-06-16T08:03:24.624Z,971.25
2017-06-16T08:04:24.624Z,971.28
2017-06-16T08:05:24.628Z,971.28
2017-06-16T08:06:24.628Z,971.29
2017-06-16T08:07:24.628Z,971.26
2017-06-16T08:08:24.628Z,971.32
2017-06-16T08:09:24.635Z,971.25
2017-06-16T08:10:24.629Z,971.19
2017-06-16T08:11:24.631Z,971.15
2017-06-16T08:12:24.631Z,971.17
2017-06-16T08:13:24.632Z,971.22
2017-06-16T08:14:24.631Z,971.2
2017-06-16T08:15:24.634Z,971.24
2017-06-16T08:16:24.633Z,971.19
2017-06-16T08:17:24.635Z,971.21
2017-06-16T08:18:24.635Z,971.25
2017-06-16T08:19:24.642Z,971.24
2017-06-16T08:20:24.635Z,971.27
2017-06-16T08:21:24.638Z,971.21
2017-06-16T08:22:24.639Z,971.22
2017-06-16T08:23:24.638Z,971.21
2017-06-16T08:24:24.640Z,971.2
2017-06-16T08:25:24.639Z,971.25
2017-06-16T08:26:24.640Z,971.2
2017-06-16T08:27:24.642Z,971.17
2017-06-16T08:28:24.644Z,971.15
2017-06-16T08:29:24.642Z,971.15
2017-06-16T08:30:24.643Z,971.14
2017-06-16T08:31:24.644Z,971.2
2017-06-16T08:32:24.645Z,971.19
2017-06-16T08:33:24.645Z,971.17
2017-06-16T08:34:24.646Z,971.26
2017-06-16T08:35:24.647Z,971.24
2017-06-16T08:36:24.648Z,971.21
2017-06-16T08:37:24.647Z,971.23
2017-06-16T08:38:24.649Z,971.25
2017-06-16T08:39:24.650Z,971.34
2017-06-16T08:40:24.649Z,971.29
2017-06-16T08:41:24.650Z,971.25
2017-06-16T08:42:24.652Z,971.28
2017-06-16T08:43:24.653Z,971.29
2017-06-16T08:44:24.654Z,971.3
2017-06-16T08:45:24.655Z,971.3
2017-06-16T08:46:24.655Z,971.28
2017-06-16T08:47:24.656Z,971.18
2017-06-16T08:48:24.655Z,971.23
2017-06-16T08:49:24.658Z,971.18
2017-06-16T08:50:24.658Z,971.21
2017-06-16T08:51:24.659Z,971.21
2017-06-16T08:52:24.659Z,971.16
2017-06-16T08:53:24.659Z,971.2
2017-06-16T08:54:24.691Z,971.22
2017-06-16T08:55:24.662Z,971.2
2017-06-16T08:56:24.662Z,971.22
2017-06-16T08:57:24.663Z,971.24
2017-06-16T08:58:24.663Z,971.24
2017-06-16T08:59:24.663Z,971.2
2017-06-16T09:00:24.665Z,971.25
2017-06-16T09:01:24.666Z,971.25
2017-06-16T09:02:24.666Z,971.26
2017-06-16T09:03:24.669Z,971.27
2017-06-16T09:04:24.668Z,971.21
2017-06-16T09:05:24.669Z,971.15
2017-06-16T09:06:24.668Z,971.16
2017-06-16T09:07:24.671Z,971.16
2017-06-16T09:08:24.672Z,971.14
2017-06-16T09:09:24.669Z,971.12
2017-06-16T09:10:24.671Z,971.2
2017-06-16T09:11:24.674Z,971.13
2017-06-16T09:12:24.674Z,971.19
2017-06-16T09:13:24.674Z,971.24
2017-06-16T09:14:24.675Z,971.26
2017-06-16T09:15:24.675Z,971.25
2017-06-16T09:16:24.675Z,971.31
2017-06-16T09:17:24.676Z,971.29
2017-06-16T09:18:24.678Z,971.28
2017-06-16T09:19:24.679Z,971.27
2017-06-16T09:20:24.679Z,971.3
2017-06-16T09:21:24.680Z,971.26
2017-06-16T09:22:24.681Z,971.21
2017-06-16T09:23:24.684Z,971.2
2017-06-16T09:24:24.684Z,971.15
2017-06-16T09:25:24.684Z,971.16
2017-06-16T09:26:24.684Z,971.19
2017-06-16T09:27:24.683Z,971.23
2017-06-16T09:28:24.684Z,971.21
2017-06-16T09:29:24.686Z,971.15
2017-06-16T09:30:24.687Z,971.23
2017-06-16T09:31:24.686Z,971.12
2017-06-16T09:32:24.688Z,971.13
2017-06-16T09:33:24.688Z,971.15
2017-06-16T09:34:24.690Z,971.13
2017-06-16T09:35:24.691Z,971.14
2017-06-16T09:36:24.691Z,971.13
2017-06-16T09:37:24.693Z,971.09
2017-06-16T09:38:24.691Z,971.12
2017-06-16T09:39:24.695Z,971.08
2017-06-16T09:40:24.695Z,971.07
2017-06-16T09:41:24.699Z,971.11
2017-06-16T09:42:24.695Z,971.11
2017-06-16T09:43:24.696Z,971.05
2017-06-16T09:44:24.698Z,971.05
2017-06-16T09:45:24.699Z,971.1
2017-06-16T09:46:24.700Z,971.04
2017-06-16T09:47:24.700Z,971.07
2017-06-16T09:48:24.701Z,971.13
2017-06-16T09:49:24.700Z,971.08
2017-06-16T09:50:24.701Z,971.06
2017-06-16T09:51:24.704Z,971.05
2017-06-16T09:52:24.703Z,971.08
2017-06-16T09:53:24.704Z,971.08
2017-06-16T09:54:24.708Z,971.07
2017-06-16T09:55:24.707Z,971.06
2017-06-16T09:56:24.708Z,971.08
2017-06-16T09:57:24.708Z,971.09
2017-06-16T09:58:24.708Z,971.15
2017-06-16T09:59:24.709Z,971.15
2017-06-16T10:00:24.709Z,971.09
2017-06-16T10:01:24.710Z,971.12
2017-06-16T10:02:24.710Z,971.15
2017-06-16T10:03:24.713Z,971.2
2017-06-16T10:04:24.712Z,971.08
2017-06-16T10:05:24.712Z,971.05
2017-06-16T10:06:24.713Z,971.04
2017-06-16T10:07:24.715Z,970.99
2017-06-16T10:08:24.714Z,971.09
2017-06-16T10:09:24.716Z,971.08
2017-06-16T10:10:24.716Z,971.13
2017-06-16T10:11:24.715Z,971.19
2017-06-16T10:12:24.718Z,971.17
2017-06-16T10:13:24.718Z,971.12
2017-06-16T10:14:24.750Z,971.16
2017-06-16T10:15:24.718Z,971.12
2017-06-16T10:16:24.720Z,971.19
2017-06-16T10:17:24.721Z,971.15
2017-06-16T10:18:24.720Z,971.17
2017-06-16T10:19:24.721Z,971.14
2017-06-16T10:20:24.723Z,971.18
2017-06-16T10:21:24.723Z,971.16
2017-06-16T10:22:24.725Z,971.15
2017-06-16T10:23:24.725Z,971.12
2017-06-16T10:24:24.726Z,971.12
2017-06-16T10:25:24.727Z,971.08
2017-06-16T10:26:24.727Z,971.03
2017-06-16T10:27:24.728Z,971.03
2017-06-16T10:28:24.730Z,971.04
2017-06-16T10:29:24.729Z,971.05
2017-06-16T10:30:24.729Z,971.05
2017-06-16T10:31:24.731Z,971.05
2017-06-16T10:32:24.730Z,971.08
2017-06-16T10:33:24.731Z,971.04
2017-06-16T10:34:24.733Z,971.02
2017-06-16T10:35:24.734Z,971.06
2017-06-16T10:36:24.734Z,971.04
2017-06-16T10:37:24.735Z,971.03
2017-06-16T10:38:24.735Z,971.05
2017-06-16T10:39:24.736Z,970.99
2017-06-16T10:40:24.735Z,971.02
2017-06-16T10:41:24.735Z,970.97
2017-06-16T10:42:24.736Z,970.98
2017-06-16T10:43:24.737Z,971
2017-06-16T10:44:24.738Z,970.96
2017-06-16T10:45:24.739Z,970.9
2017-06-16T10:46:24.739Z,970.89
2017-06-16T10:47:24.740Z,970.82
2017-06-16T10:48:24.741Z,970.89
2017-06-16T10:49:24.740Z,970.91
2017-06-16T10:50:24.743Z,970.87
2017-06-16T10:51:24.743Z,970.85
2017-06-16T10:52:24.743Z,970.86
2017-06-16T10:53:24.743Z,970.89
2017-06-16T10:54:24.744Z,970.87
2017-06-16T10:55:24.744Z,970.86
2017-06-16T10:56:24.745Z,970.85
2017-06-16T10:57:24.748Z,970.87
2017-06-16T10:58:24.747Z,970.9
2017-06-16T10:59:24.747Z,970.91
2017-06-16T11:00:24.750Z,970.94
2017-06-16T11:01:24.750Z,970.88
2017-06-16T11:02:24.747Z,970.89
2017-06-16T11:03:24.748Z,970.93
2017-06-16T11:04:24.750Z,970.93
2017-06-16T11:05:24.750Z,970.94
2017-06-16T11:06:24.751Z,970.95
2017-06-16T11:07:24.752Z,971.04
2017-06-16T11:08:24.754Z,970.96
2017-06-16T11:09:24.753Z,970.92
2017-06-16T11:10:24.752Z,970.94
2017-06-16T11:11:24.755Z,970.93
2017-06-16T11:12:24.756Z,970.92
2017-06-16T11:13:24.756Z,971
2017-06-16T11:14:24.757Z,970.96
2017-06-16T11:15:24.757Z,970.93
2017-06-16T11:16:24.758Z,970.9
2017-06-16T11:17:24.757Z,970.88
2017-06-16T11:18:24.760Z,970.89
2017-06-16T11:19:24.759Z,970.92
2017-06-16T11:20:24.762Z,970.87
2017-06-16T11:21:24.761Z,970.92
2017-06-16T11:22:24.760Z,970.91
2017-06-16T11:23:24.767Z,970.89
2017-06-16T11:24:24.764Z,970.92
2017-06-16T11:25:24.764Z,970.9
2017-06-16T11:26:24.764Z,970.89
2017-06-16T11:27:24.765Z,970.92
2017-06-16T11:28:24.764Z,970.94
2017-06-16T11:29:24.767Z,970.88
2017-06-16T11:30:24.768Z,970.9
2017-06-16T11:31:24.800Z,970.91
2017-06-16T11:32:24.768Z,970.86
2017-06-16T11:33:24.769Z,970.88
2017-06-16T11:34:24.771Z,970.85
2017-06-16T11:35:24.771Z,970.85
2017-06-16T11:36:24.771Z,970.86
2017-06-16T11:37:24.773Z,970.93
2017-06-16T11:38:24.773Z,970.92
2017-06-16T11:39:24.773Z,970.91
2017-06-16T11:40:24.773Z,970.92
2017-06-16T11:41:24.775Z,970.95
2017-06-16T11:42:24.776Z,970.88
2017-06-16T11:43:24.775Z,970.91
2017-06-16T11:44:24.775Z,970.86
2017-06-16T11:45:24.776Z,970.86
2017-06-16T11:46:24.777Z,970.81
2017-06-16T11:47:24.779Z,970.88
2017-06-16T11:48:24.779Z,970.89
2017-06-16T11:49:24.780Z,970.93
2017-06-16T11:50:24.780Z,970.92
2017-06-16T11:51:24.781Z,970.96
2017-06-16T11:52:24.783Z,970.99
2017-06-16T11:53:24.783Z,970.99
2017-06-16T11:54:24.784Z,970.99
2017-06-16T11:55:24.785Z,971.01
2017-06-16T11:56:24.785Z,971.05
2017-06-16T11:57:24.785Z,971.04
2017-06-16T11:58:24.786Z,971.06
2017-06-16T11:59:24.786Z,971.09
2017-06-16T12:00:24.787Z,971.09
2017-06-16T12:01:24.788Z,971.11
2017-06-16T12:02:24.789Z,971.09
2017-06-16T12:03:24.789Z,971.09
2017-06-16T12:04:24.789Z,971.09
2017-06-16T12:05:24.788Z,971.11
2017-06-16T12:06:24.790Z,971.1
2017-06-16T12:07:24.789Z,971.1
2017-06-16T12:08:24.791Z,971.13
2017-06-16T12:09:24.792Z,971.12
2017-06-16T12:10:24.792Z,971.12
2017-06-16T12:11:24.792Z,971.09
2017-06-16T12:12:24.791Z,971.12
2017-06-16T12:13:24.793Z,971.12
2017-06-16T12:14:24.799Z,971.13
2017-06-16T12:15:24.795Z,971.08
2017-06-16T12:16:24.796Z,971.05
2017-06-16T12:17:24.795Z,971.05
2017-06-16T12:18:24.795Z,971.01
2017-06-16T12:19:24.795Z,971
2017-06-16T12:20:24.798Z,971
2017-06-16T12:21:24.799Z,971
2017-06-16T12:22:24.800Z,970.98
2017-06-16T12:23:24.797Z,970.97
2017-06-16T12:24:24.800Z,971
2017-06-16T12:25:24.799Z,971.02
2017-06-16T12:26:24.810Z,971.06
2017-06-16T12:27:24.801Z,970.97
2017-06-16T12:28:24.800Z,970.96
2017-06-16T12:29:24.802Z,971.05
2017-06-16T12:30:24.800Z,971.04
2017-06-16T12:31:24.801Z,971.08